sensor_id;sensor_type;location;lat;lon;timestamp;P1;durP1;ratioP1;P2;durP2;ratioP2
37891;SDS011;45797;47.466;9.486;2023-01-20T00:03:24;10.40;;;0.87;;
37891;SDS011;45797;47.466;9.486;2023-01-20T00:13:28;4.43;;;1.30;;
37891;SDS011;45797;47.466;9.486;2023-01-20T00:18:29;2.23;;;0.70;;
37891;SDS011;45797;47.466;9.486;2023-01-20T00:23:29;2.73;;;1.40;;
37891;SDS011;45797;47.466;9.486;2023-01-20T00:28:30;1.23;;;0.70;;
37891;SDS011;45797;47.466;9.486;2023-01-20T00:33:45;2.20;;;1.20;;
37891;SDS011;45797;47.466;9.486;2023-01-20T00:43:56;3.67;;;1.10;;
37891;SDS011;45797;47.466;9.486;2023-01-20T00:48:57;3.30;;;1.33;;
37891;SDS011;45797;47.466;9.486;2023-01-20T00:53:57;1.83;;;1.00;;
37891;SDS011;45797;47.466;9.486;2023-01-20T00:59:01;0.90;;;0.63;;
37891;SDS011;45797;47.466;9.486;2023-01-20T01:04:02;1.03;;;0.70;;
37891;SDS011;45797;47.466;9.486;2023-01-20T01:09:03;2.67;;;1.40;;
37891;SDS011;45797;47.466;9.486;2023-01-20T01:14:04;2.77;;;1.20;;
37891;SDS011;45797;47.466;9.486;2023-01-20T01:19:10;2.83;;;1.00;;
37891;SDS011;45797;47.466;9.486;2023-01-20T01:24:12;2.37;;;0.90;;
37891;SDS011;45797;47.466;9.486;2023-01-20T01:29:13;1.57;;;1.20;;
37891;SDS011;45797;47.466;9.486;2023-01-20T01:34:13;2.00;;;1.20;;
37891;SDS011;45797;47.466;9.486;2023-01-20T01:39:15;2.20;;;1.20;;
37891;SDS011;45797;47.466;9.486;2023-01-20T01:44:15;2.03;;;1.00;;
37891;SDS011;45797;47.466;9.486;2023-01-20T01:54:33;1.50;;;1.00;;
37891;SDS011;45797;47.466;9.486;2023-01-20T01:59:37;1.43;;;0.93;;
37891;SDS011;45797;47.466;9.486;2023-01-20T02:04:38;2.13;;;1.07;;
37891;SDS011;45797;47.466;9.486;2023-01-20T02:09:40;3.17;;;0.90;;
37891;SDS011;45797;47.466;9.486;2023-01-20T02:14:44;1.63;;;1.10;;
37891;SDS011;45797;47.466;9.486;2023-01-20T02:20:01;3.00;;;1.27;;
37891;SDS011;45797;47.466;9.486;2023-01-20T02:30:33;1.97;;;0.97;;
37891;SDS011;45797;47.466;9.486;2023-01-20T02:35:48;1.83;;;0.87;;
37891;SDS011;45797;47.466;9.486;2023-01-20T02:51:28;2.00;;;1.10;;
37891;SDS011;45797;47.466;9.486;2023-01-20T02:56:45;1.83;;;1.00;;
37891;SDS011;45797;47.466;9.486;2023-01-20T03:01:53;1.67;;;1.03;;
37891;SDS011;45797;47.466;9.486;2023-01-20T03:07:02;2.33;;;0.90;;
37891;SDS011;45797;47.466;9.486;2023-01-20T03:12:14;1.57;;;0.87;;
37891;SDS011;45797;47.466;9.486;2023-01-20T03:17:22;2.40;;;1.33;;
37891;SDS011;45797;47.466;9.486;2023-01-20T03:22:31;3.33;;;1.43;;
37891;SDS011;45797;47.466;9.486;2023-01-20T03:27:40;2.63;;;1.20;;
37891;SDS011;45797;47.466;9.486;2023-01-20T03:32:43;2.27;;;1.13;;
37891;SDS011;45797;47.466;9.486;2023-01-20T03:37:49;2.30;;;1.37;;
37891;SDS011;45797;47.466;9.486;2023-01-20T03:48:17;5.50;;;1.47;;
37891;SDS011;45797;47.466;9.486;2023-01-20T03:53:34;3.53;;;2.00;;
37891;SDS011;45797;47.466;9.486;2023-01-20T03:58:45;1.70;;;1.20;;
37891;SDS011;45797;47.466;9.486;2023-01-20T04:03:51;3.50;;;1.50;;
37891;SDS011;45797;47.466;9.486;2023-01-20T04:08:55;4.33;;;1.73;;
37891;SDS011;45797;47.466;9.486;2023-01-20T04:14:01;3.87;;;1.73;;
37891;SDS011;45797;47.466;9.486;2023-01-20T04:19:02;1.57;;;1.03;;
37891;SDS011;45797;47.466;9.486;2023-01-20T04:29:25;3.50;;;1.57;;
37891;SDS011;45797;47.466;9.486;2023-01-20T04:34:25;3.07;;;1.50;;
37891;SDS011;45797;47.466;9.486;2023-01-20T04:39:27;2.43;;;1.47;;
37891;SDS011;45797;47.466;9.486;2023-01-20T04:44:27;2.90;;;1.53;;
37891;SDS011;45797;47.466;9.486;2023-01-20T04:49:30;4.00;;;1.83;;
37891;SDS011;45797;47.466;9.486;2023-01-20T05:09:45;3.00;;;1.70;;
37891;SDS011;45797;47.466;9.486;2023-01-20T05:14:47;3.53;;;2.10;;
37891;SDS011;45797;47.466;9.486;2023-01-20T05:19:53;2.87;;;1.77;;
37891;SDS011;45797;47.466;9.486;2023-01-20T05:24:56;4.60;;;2.23;;
37891;SDS011;45797;47.466;9.486;2023-01-20T05:29:56;4.73;;;2.00;;
37891;SDS011;45797;47.466;9.486;2023-01-20T05:34:56;3.93;;;2.20;;
37891;SDS011;45797;47.466;9.486;2023-01-20T05:39:58;2.80;;;1.60;;
37891;SDS011;45797;47.466;9.486;2023-01-20T05:44:58;3.83;;;2.13;;
37891;SDS011;45797;47.466;9.486;2023-01-20T05:50:05;6.03;;;2.77;;
37891;SDS011;45797;47.466;9.486;2023-01-20T05:55:08;3.77;;;2.30;;
37891;SDS011;45797;47.466;9.486;2023-01-20T06:00:09;6.00;;;2.53;;
37891;SDS011;45797;47.466;9.486;2023-01-20T06:05:13;5.60;;;3.27;;
37891;SDS011;45797;47.466;9.486;2023-01-20T06:10:14;6.30;;;2.97;;
37891;SDS011;45797;47.466;9.486;2023-01-20T06:20:33;5.80;;;3.20;;
37891;SDS011;45797;47.466;9.486;2023-01-20T06:25:36;4.07;;;2.40;;
37891;SDS011;45797;47.466;9.486;2023-01-20T06:35:41;7.13;;;2.83;;
37891;SDS011;45797;47.466;9.486;2023-01-20T06:46:00;6.47;;;2.80;;
37891;SDS011;45797;47.466;9.486;2023-01-20T06:51:05;4.97;;;2.67;;
37891;SDS011;45797;47.466;9.486;2023-01-20T07:01:37;5.80;;;2.27;;
37891;SDS011;45797;47.466;9.486;2023-01-20T07:06:49;9.27;;;2.83;;
37891;SDS011;45797;47.466;9.486;2023-01-20T07:11:50;6.20;;;2.80;;
37891;SDS011;45797;47.466;9.486;2023-01-20T07:22:09;5.40;;;1.97;;
37891;SDS011;45797;47.466;9.486;2023-01-20T07:32:15;5.10;;;2.70;;
37891;SDS011;45797;47.466;9.486;2023-01-20T07:37:15;5.37;;;2.73;;
37891;SDS011;45797;47.466;9.486;2023-01-20T07:42:17;5.80;;;2.90;;
37891;SDS011;45797;47.466;9.486;2023-01-20T07:47:27;5.80;;;2.80;;
37891;SDS011;45797;47.466;9.486;2023-01-20T07:52:44;4.67;;;2.80;;
37891;SDS011;45797;47.466;9.486;2023-01-20T07:57:44;6.93;;;2.83;;
37891;SDS011;45797;47.466;9.486;2023-01-20T08:02:46;6.63;;;3.17;;
37891;SDS011;45797;47.466;9.486;2023-01-20T08:07:51;6.47;;;3.43;;
37891;SDS011;45797;47.466;9.486;2023-01-20T08:13:03;6.57;;;2.80;;
37891;SDS011;45797;47.466;9.486;2023-01-20T08:18:04;6.73;;;3.33;;
37891;SDS011;45797;47.466;9.486;2023-01-20T08:23:04;4.13;;;2.73;;
37891;SDS011;45797;47.466;9.486;2023-01-20T08:33:09;7.13;;;2.90;;
37891;SDS011;45797;47.466;9.486;2023-01-20T08:38:10;5.93;;;2.87;;
37891;SDS011;45797;47.466;9.486;2023-01-20T08:43:10;5.83;;;2.97;;
37891;SDS011;45797;47.466;9.486;2023-01-20T08:53:17;4.47;;;2.47;;
37891;SDS011;45797;47.466;9.486;2023-01-20T08:58:20;3.77;;;2.00;;
37891;SDS011;45797;47.466;9.486;2023-01-20T09:03:21;4.37;;;2.50;;
37891;SDS011;45797;47.466;9.486;2023-01-20T09:08:22;4.13;;;2.40;;
37891;SDS011;45797;47.466;9.486;2023-01-20T09:13:27;4.90;;;2.63;;
37891;SDS011;45797;47.466;9.486;2023-01-20T09:18:35;7.13;;;2.80;;
37891;SDS011;45797;47.466;9.486;2023-01-20T09:23:37;6.83;;;2.77;;
37891;SDS011;45797;47.466;9.486;2023-01-20T09:28:40;4.93;;;2.47;;
37891;SDS011;45797;47.466;9.486;2023-01-20T09:33:54;5.23;;;2.63;;
37891;SDS011;45797;47.466;9.486;2023-01-20T09:38:55;6.17;;;2.80;;
37891;SDS011;45797;47.466;9.486;2023-01-20T10:06:21;6.70;;;2.77;;
37891;SDS011;45797;47.466;9.486;2023-01-20T10:11:37;7.57;;;2.60;;
37891;SDS011;45797;47.466;9.486;2023-01-20T10:21:51;6.47;;;3.13;;
37891;SDS011;45797;47.466;9.486;2023-01-20T10:43:41;5.63;;;3.03;;
37891;SDS011;45797;47.466;9.486;2023-01-20T10:48:49;6.80;;;3.23;;
37891;SDS011;45797;47.466;9.486;2023-01-20T10:59:43;6.60;;;3.27;;
37891;SDS011;45797;47.466;9.486;2023-01-20T11:10:16;6.30;;;3.27;;
37891;SDS011;45797;47.466;9.486;2023-01-20T11:15:29;7.30;;;3.87;;
37891;SDS011;45797;47.466;9.486;2023-01-20T11:20:32;8.63;;;4.10;;
37891;SDS011;45797;47.466;9.486;2023-01-20T11:25:36;9.40;;;3.93;;
37891;SDS011;45797;47.466;9.486;2023-01-20T11:30:38;11.50;;;3.47;;
37891;SDS011;45797;47.466;9.486;2023-01-20T11:41:02;8.27;;;3.40;;
37891;SDS011;45797;47.466;9.486;2023-01-20T11:46:14;8.17;;;3.63;;
37891;SDS011;45797;47.466;9.486;2023-01-20T11:51:29;10.67;;;4.20;;
37891;SDS011;45797;47.466;9.486;2023-01-20T11:56:30;9.97;;;4.67;;
37891;SDS011;45797;47.466;9.486;2023-01-20T12:01:56;7.10;;;3.10;;
37891;SDS011;45797;47.466;9.486;2023-01-20T12:17:22;10.67;;;4.20;;
37891;SDS011;45797;47.466;9.486;2023-01-20T12:33:38;6.73;;;3.27;;
37891;SDS011;45797;47.466;9.486;2023-01-20T12:55:17;7.83;;;3.47;;
37891;SDS011;45797;47.466;9.486;2023-01-20T13:00:33;7.70;;;3.03;;
37891;SDS011;45797;47.466;9.486;2023-01-20T13:21:45;5.90;;;3.03;;
37891;SDS011;45797;47.466;9.486;2023-01-20T13:26:48;9.53;;;3.17;;
37891;SDS011;45797;47.466;9.486;2023-01-20T13:31:55;6.87;;;3.30;;
37891;SDS011;45797;47.466;9.486;2023-01-20T13:42:28;7.67;;;3.07;;
37891;SDS011;45797;47.466;9.486;2023-01-20T13:53:25;6.70;;;2.40;;
37891;SDS011;45797;47.466;9.486;2023-01-20T13:58:41;3.83;;;1.97;;
37891;SDS011;45797;47.466;9.486;2023-01-20T14:03:43;4.20;;;1.93;;
37891;SDS011;45797;47.466;9.486;2023-01-20T14:09:00;4.67;;;2.50;;
37891;SDS011;45797;47.466;9.486;2023-01-20T14:14:03;5.77;;;2.40;;
37891;SDS011;45797;47.466;9.486;2023-01-20T14:29:49;4.73;;;2.23;;
37891;SDS011;45797;47.466;9.486;2023-01-20T14:34:51;4.93;;;2.50;;
37891;SDS011;45797;47.466;9.486;2023-01-20T14:39:52;4.32;;;2.13;;
37891;SDS011;45797;47.466;9.486;2023-01-20T14:50:19;4.10;;;2.00;;
37891;SDS011;45797;47.466;9.486;2023-01-20T14:55:33;4.70;;;2.17;;
37891;SDS011;45797;47.466;9.486;2023-01-20T15:00:35;3.97;;;1.70;;
37891;SDS011;45797;47.466;9.486;2023-01-20T15:16:15;4.00;;;2.03;;
37891;SDS011;45797;47.466;9.486;2023-01-20T15:21:26;4.83;;;2.50;;
37891;SDS011;45797;47.466;9.486;2023-01-20T15:26:34;8.60;;;2.53;;
37891;SDS011;45797;47.466;9.486;2023-01-20T15:31:39;4.30;;;2.40;;
37891;SDS011;45797;47.466;9.486;2023-01-20T15:36:40;5.77;;;2.10;;
37891;SDS011;45797;47.466;9.486;2023-01-20T15:41:44;5.17;;;2.23;;
37891;SDS011;45797;47.466;9.486;2023-01-20T15:46:46;3.90;;;1.80;;
37891;SDS011;45797;47.466;9.486;2023-01-20T15:51:47;3.43;;;1.87;;
37891;SDS011;45797;47.466;9.486;2023-01-20T16:07:19;4.97;;;2.40;;
37891;SDS011;45797;47.466;9.486;2023-01-20T16:12:37;4.30;;;1.87;;
37891;SDS011;45797;47.466;9.486;2023-01-20T16:17:37;4.60;;;2.53;;
37891;SDS011;45797;47.466;9.486;2023-01-20T16:22:39;7.90;;;2.50;;
37891;SDS011;45797;47.466;9.486;2023-01-20T16:27:42;4.43;;;2.37;;
37891;SDS011;45797;47.466;9.486;2023-01-20T16:32:49;4.87;;;2.40;;
37891;SDS011;45797;47.466;9.486;2023-01-20T16:37:50;5.93;;;2.63;;
37891;SDS011;45797;47.466;9.486;2023-01-20T16:43:02;3.70;;;2.03;;
37891;SDS011;45797;47.466;9.486;2023-01-20T16:48:02;3.63;;;2.43;;
37891;SDS011;45797;47.466;9.486;2023-01-20T16:53:03;6.20;;;1.87;;
37891;SDS011;45797;47.466;9.486;2023-01-20T16:58:03;5.07;;;2.33;;
37891;SDS011;45797;47.466;9.486;2023-01-20T17:03:05;6.07;;;2.93;;
37891;SDS011;45797;47.466;9.486;2023-01-20T17:08:07;4.63;;;2.27;;
37891;SDS011;45797;47.466;9.486;2023-01-20T17:13:10;5.13;;;2.50;;
37891;SDS011;45797;47.466;9.486;2023-01-20T17:18:17;6.60;;;2.50;;
37891;SDS011;45797;47.466;9.486;2023-01-20T17:23:18;5.23;;;2.77;;
37891;SDS011;45797;47.466;9.486;2023-01-20T17:28:18;8.73;;;2.97;;
37891;SDS011;45797;47.466;9.486;2023-01-20T17:38:43;8.27;;;2.53;;
37891;SDS011;45797;47.466;9.486;2023-01-20T17:43:45;6.80;;;2.40;;
37891;SDS011;45797;47.466;9.486;2023-01-20T17:53:50;7.33;;;2.33;;
37891;SDS011;45797;47.466;9.486;2023-01-20T18:03:56;6.10;;;2.73;;
37891;SDS011;45797;47.466;9.486;2023-01-20T18:08:59;7.13;;;3.10;;
37891;SDS011;45797;47.466;9.486;2023-01-20T18:14:01;7.57;;;3.70;;
37891;SDS011;45797;47.466;9.486;2023-01-20T18:19:09;6.63;;;2.73;;
37891;SDS011;45797;47.466;9.486;2023-01-20T18:24:11;6.63;;;2.90;;
37891;SDS011;45797;47.466;9.486;2023-01-20T18:29:14;5.47;;;2.50;;
37891;SDS011;45797;47.466;9.486;2023-01-20T18:34:15;7.80;;;2.77;;
37891;SDS011;45797;47.466;9.486;2023-01-20T18:49:27;5.90;;;2.77;;
37891;SDS011;45797;47.466;9.486;2023-01-20T19:04:58;6.40;;;2.87;;
37891;SDS011;45797;47.466;9.486;2023-01-20T19:10:01;5.43;;;2.67;;
37891;SDS011;45797;47.466;9.486;2023-01-20T19:15:02;6.60;;;3.20;;
37891;SDS011;45797;47.466;9.486;2023-01-20T19:25:07;6.67;;;2.87;;
37891;SDS011;45797;47.466;9.486;2023-01-20T19:30:08;8.13;;;3.43;;
37891;SDS011;45797;47.466;9.486;2023-01-20T19:40:15;6.57;;;2.47;;
37891;SDS011;45797;47.466;9.486;2023-01-20T19:45:28;5.77;;;2.43;;
37891;SDS011;45797;47.466;9.486;2023-01-20T19:55:36;5.57;;;2.57;;
37891;SDS011;45797;47.466;9.486;2023-01-20T20:00:36;6.63;;;2.50;;
37891;SDS011;45797;47.466;9.486;2023-01-20T20:05:48;8.00;;;3.40;;
37891;SDS011;45797;47.466;9.486;2023-01-20T20:10:49;6.63;;;2.70;;
37891;SDS011;45797;47.466;9.486;2023-01-20T20:21:04;5.37;;;2.67;;
37891;SDS011;45797;47.466;9.486;2023-01-20T20:26:12;6.30;;;2.30;;
37891;SDS011;45797;47.466;9.486;2023-01-20T20:31:23;4.37;;;2.13;;
37891;SDS011;45797;47.466;9.486;2023-01-20T20:36:35;4.43;;;1.93;;
37891;SDS011;45797;47.466;9.486;2023-01-20T20:41:35;5.47;;;2.37;;
37891;SDS011;45797;47.466;9.486;2023-01-20T20:46:46;5.27;;;2.77;;
37891;SDS011;45797;47.466;9.486;2023-01-20T20:51:49;6.00;;;2.50;;
37891;SDS011;45797;47.466;9.486;2023-01-20T20:56:49;6.43;;;3.27;;
37891;SDS011;45797;47.466;9.486;2023-01-20T21:01:51;5.60;;;2.13;;
37891;SDS011;45797;47.466;9.486;2023-01-20T21:06:51;4.67;;;2.40;;
37891;SDS011;45797;47.466;9.486;2023-01-20T21:16:58;5.93;;;2.67;;
37891;SDS011;45797;47.466;9.486;2023-01-20T21:21:58;6.10;;;2.43;;
37891;SDS011;45797;47.466;9.486;2023-01-20T21:27:00;5.80;;;2.10;;
37891;SDS011;45797;47.466;9.486;2023-01-20T21:32:00;4.57;;;2.20;;
37891;SDS011;45797;47.466;9.486;2023-01-20T21:37:16;8.37;;;2.10;;
37891;SDS011;45797;47.466;9.486;2023-01-20T21:42:18;4.83;;;1.83;;
37891;SDS011;45797;47.466;9.486;2023-01-20T21:47:35;6.80;;;2.23;;
37891;SDS011;45797;47.466;9.486;2023-01-20T21:52:37;5.33;;;2.30;;
37891;SDS011;45797;47.466;9.486;2023-01-20T21:57:40;5.07;;;2.43;;
37891;SDS011;45797;47.466;9.486;2023-01-20T22:02:41;3.77;;;1.60;;
37891;SDS011;45797;47.466;9.486;2023-01-20T22:07:43;4.70;;;1.90;;
37891;SDS011;45797;47.466;9.486;2023-01-20T22:12:46;3.30;;;1.47;;
37891;SDS011;45797;47.466;9.486;2023-01-20T22:17:47;2.70;;;1.40;;
37891;SDS011;45797;47.466;9.486;2023-01-20T22:23:00;4.97;;;1.37;;
37891;SDS011;45797;47.466;9.486;2023-01-20T22:28:03;5.20;;;1.50;;
37891;SDS011;45797;47.466;9.486;2023-01-20T22:33:10;3.43;;;1.50;;
37891;SDS011;45797;47.466;9.486;2023-01-20T22:38:16;4.30;;;1.77;;
37891;SDS011;45797;47.466;9.486;2023-01-20T22:43:16;3.80;;;1.63;;
37891;SDS011;45797;47.466;9.486;2023-01-20T22:48:16;4.03;;;1.80;;
37891;SDS011;45797;47.466;9.486;2023-01-20T22:53:19;3.30;;;1.60;;
37891;SDS011;45797;47.466;9.486;2023-01-20T22:58:19;3.97;;;1.37;;
37891;SDS011;45797;47.466;9.486;2023-01-20T23:08:24;2.30;;;1.27;;
37891;SDS011;45797;47.466;9.486;2023-01-20T23:13:28;3.03;;;1.60;;
37891;SDS011;45797;47.466;9.486;2023-01-20T23:18:28;3.13;;;1.60;;
37891;SDS011;45797;47.466;9.486;2023-01-20T23:23:34;3.13;;;1.27;;
37891;SDS011;45797;47.466;9.486;2023-01-20T23:33:45;2.70;;;1.37;;
37891;SDS011;45797;47.466;9.486;2023-01-20T23:38:45;3.47;;;1.77;;
37891;SDS011;45797;47.466;9.486;2023-01-20T23:43:47;2.17;;;1.13;;
37891;SDS011;45797;47.466;9.486;2023-01-20T23:48:47;4.30;;;1.63;;
37891;SDS011;45797;47.466;9.486;2023-01-20T23:53:47;3.17;;;1.43;;
37891;SDS011;45797;47.466;9.486;2023-01-20T23:58:50;5.07;;;1.50;;
